Highland, Utah
Current Conditions -  °F | °C
As of 4:15 AM on Sunday 23 Nov 2014 (Local Time) from KPVU Reporting Station
Few Clouds Few Clouds  
Wind Chill: 24°   Ceiling: Unl
Heat Index: 36°   Visibility: 10mi
Dew Point: 23°   Wind: 22mph
Humidity: 60%   Direction: 310°NW
Pressure: 30.03"   Gusts: 26mph
Location:  40.4102°N, 111.814°W
Report Text: KPVU 231115Z 31019G23KT 10SM FEW075 02/M05 A3003 RMK AO1
Loading
Personal Weather Stations






























Interactive Weather Map New forecast layout! Learn more

10-Day Weather Forecast

Advertisements
Track Severe Weather on mobile